Time;durP1;ratioP1;P1;durP2;ratioP2;P2;SDS_P1;SDS_P2;PMS_P1;PMS_P2;Temp;Humidity;BMP_temperature;BMP_pressure;BME280_temperature;BME280_humidity;BME280_pressure;Samples;Min_cycle;Max_cycle;Signal;HPM_P1;HPM_P2
2023/10/18 00:01:02;;;;;;;9.50;5.38;;;6.90;99.90;;;;;;5071106;28;20120;-71
2023/10/18 00:03:31;;;;;;;9.43;6.13;;;6.80;99.90;;;;;;5070241;28;20037;-70
2023/10/18 00:06:34;;;;;;;11.65;6.40;;;6.80;99.90;;;;;;5071508;28;20033;-71
2023/10/18 00:09:32;;;;;;;13.00;6.43;;;6.80;99.90;;;;;;5068388;28;20052;-71
2023/10/18 00:11:45;;;;;;;13.60;6.88;;;6.80;99.90;;;;;;5071469;28;20052;-71
2023/10/18 00:14:10;;;;;;;12.50;6.45;;;6.80;99.90;;;;;;5054040;28;20048;-71
2023/10/18 00:16:36;;;;;;;18.40;8.20;;;6.70;99.90;;;;;;5071941;28;20044;-71
2023/10/18 00:19:01;;;;;;;14.70;7.05;;;6.70;99.90;;;;;;5071475;28;20469;-71
2023/10/18 00:21:27;;;;;;;13.93;7.75;;;6.80;99.90;;;;;;5071506;28;20037;-71
2023/10/18 00:23:52;;;;;;;12.18;7.45;;;6.70;99.90;;;;;;5071695;28;20409;-71
2023/10/18 00:26:18;;;;;;;13.68;7.72;;;6.80;99.90;;;;;;5071623;28;20074;-71
2023/10/18 00:28:43;;;;;;;13.23;7.07;;;6.70;99.90;;;;;;5071591;28;20086;-71
2023/10/18 00:31:17;;;;;;;13.43;7.20;;;6.70;99.90;;;;;;5071521;28;20547;-71
2023/10/18 00:33:46;;;;;;;14.70;9.23;;;6.70;99.90;;;;;;5037143;28;20452;-71
2023/10/18 00:36:16;;;;;;;18.27;7.60;;;6.60;99.90;;;;;;5071650;28;20086;-71
2023/10/18 00:38:42;;;;;;;13.93;8.52;;;6.60;99.90;;;;;;5053271;28;20062;-70
2023/10/18 00:41:29;;;;;;;19.10;8.50;;;6.60;99.90;;;;;;5053226;28;20500;-71
2023/10/18 00:43:58;;;;;;;14.40;8.02;;;6.60;99.90;;;;;;5036903;28;20476;-71
2023/10/18 00:46:24;;;;;;;13.50;8.88;;;6.70;99.90;;;;;;5053508;28;20496;-71
2023/10/18 00:48:50;;;;;;;14.32;8.95;;;6.60;99.90;;;;;;5071291;28;20438;-71
2023/10/18 00:51:18;;;;;;;13.20;8.70;;;6.60;99.90;;;;;;5053345;28;20141;-71
2023/10/18 00:53:46;;;;;;;14.27;8.60;;;6.60;99.90;;;;;;5053700;28;20032;-71
2023/10/18 00:56:15;;;;;;;16.40;9.50;;;6.50;99.90;;;;;;5071529;28;20037;-71
2023/10/18 00:58:41;;;;;;;18.02;10.05;;;6.50;99.90;;;;;;5053380;28;20496;-71
2023/10/18 01:01:10;;;;;;;13.18;8.35;;;6.50;99.90;;;;;;5070879;28;20064;-71
2023/10/18 01:03:46;;;;;;;15.30;8.68;;;6.50;99.90;;;;;;5071329;28;20075;-71
2023/10/18 01:06:17;;;;;;;17.17;9.18;;;6.40;99.90;;;;;;5053358;28;20189;-71
2023/10/18 01:08:47;;;;;;;19.08;10.15;;;6.40;99.90;;;;;;5071354;28;20041;-71
2023/10/18 01:11:14;;;;;;;15.40;9.57;;;6.50;99.90;;;;;;5053198;28;20076;-71
2023/10/18 01:13:42;;;;;;;15.40;9.80;;;6.40;99.90;;;;;;5053447;28;20048;-71
2023/10/18 01:16:20;;;;;;;17.88;11.02;;;6.40;99.90;;;;;;5071131;28;20041;-71
2023/10/18 01:18:47;;;;;;;18.77;10.60;;;6.40;99.90;;;;;;5053302;28;20509;-70
2023/10/18 01:21:16;;;;;;;15.73;9.73;;;6.40;99.90;;;;;;5071104;28;20097;-71
2023/10/18 01:23:54;;;;;;;15.32;9.75;;;6.40;99.90;;;;;;5071065;28;20484;-71
2023/10/18 01:26:22;;;;;;;16.15;9.48;;;6.40;99.90;;;;;;5071224;28;20041;-70
2023/10/18 01:28:48;;;;;;;18.90;10.48;;;6.30;99.90;;;;;;5070767;28;20068;-70
2023/10/18 01:31:14;;;;;;;18.25;11.23;;;6.30;99.90;;;;;;5052969;28;20530;-70
2023/10/18 01:33:45;;;;;;;15.38;10.18;;;6.30;99.90;;;;;;5071205;28;20040;-71
2023/10/18 01:36:14;;;;;;;15.27;9.68;;;6.30;99.90;;;;;;5071198;28;20078;-70
2023/10/18 01:38:42;;;;;;;18.13;10.60;;;6.40;99.90;;;;;;5070925;28;20508;-73
2023/10/18 01:41:09;;;;;;;19.33;11.48;;;6.30;99.90;;;;;;5070620;28;20111;-71
2023/10/18 01:43:38;;;;;;;17.88;10.57;;;6.30;99.90;;;;;;5071151;28;20034;-71
2023/10/18 01:46:08;;;;;;;17.85;9.90;;;6.30;99.90;;;;;;5074213;28;20626;-71
2023/10/18 01:48:38;;;;;;;17.83;9.43;;;6.20;99.90;;;;;;5056788;28;20044;-70
2023/10/18 01:51:09;;;;;;;17.20;10.50;;;6.30;99.90;;;;;;5039765;28;20049;-71
2023/10/18 01:53:37;;;;;;;17.40;10.13;;;6.30;99.90;;;;;;5074281;28;20407;-71
2023/10/18 01:56:03;;;;;;;17.05;10.32;;;6.20;99.90;;;;;;5055954;28;20129;-71
2023/10/18 01:58:30;;;;;;;15.55;9.52;;;6.20;99.90;;;;;;5056389;28;20076;-71
2023/10/18 02:00:56;;;;;;;14.40;9.18;;;6.30;99.90;;;;;;5074066;28;20045;-71
2023/10/18 02:03:23;;;;;;;17.75;10.80;;;6.20;99.90;;;;;;5074276;28;20089;-71
2023/10/18 02:05:49;;;;;;;20.50;10.27;;;6.20;99.90;;;;;;5056306;28;20040;-71
2023/10/18 02:08:15;;;;;;;17.65;9.60;;;6.10;99.90;;;;;;5056158;28;20075;-71
2023/10/18 02:10:49;;;;;;;13.55;8.95;;;6.20;99.90;;;;;;5039434;28;20058;-71
2023/10/18 02:13:15;;;;;;;15.93;9.30;;;6.20;99.90;;;;;;5074275;28;20044;-71
2023/10/18 02:15:41;;;;;;;15.18;10.30;;;6.20;99.90;;;;;;5074211;28;20039;-71
2023/10/18 02:18:10;;;;;;;15.63;9.55;;;6.10;99.90;;;;;;5073784;28;20040;-71
2023/10/18 02:20:37;;;;;;;14.25;9.35;;;6.10;99.90;;;;;;5073499;28;20040;-71
2023/10/18 02:23:10;;;;;;;18.80;9.82;;;6.10;99.90;;;;;;5055983;28;20049;-71
2023/10/18 02:25:44;;;;;;;15.25;9.43;;;6.10;99.90;;;;;;5074089;28;20099;-71
2023/10/18 02:28:23;;;;;;;14.88;8.15;;;6.10;99.90;;;;;;5056094;28;20040;-71
2023/10/18 02:30:57;;;;;;;14.05;9.40;;;6.00;99.90;;;;;;5112828;22;20069;-74
2023/10/18 02:33:35;;;;;;;15.77;9.82;;;6.10;99.90;;;;;;5084915;28;20071;-74
2023/10/18 02:36:05;;;;;;;16.42;9.48;;;6.10;99.90;;;;;;5084813;28;20036;-73
2023/10/18 02:38:30;;;;;;;13.93;8.73;;;6.00;99.90;;;;;;5101827;28;20036;-73
2023/10/18 02:40:57;;;;;;;13.07;8.43;;;6.10;99.90;;;;;;5101546;28;20036;-73
2023/10/18 02:43:23;;;;;;;14.98;9.23;;;6.10;99.90;;;;;;5102440;28;20039;-73
2023/10/18 02:45:52;;;;;;;14.75;9.15;;;6.10;99.90;;;;;;5102805;28;20032;-73
2023/10/18 02:48:24;;;;;;;16.02;8.88;;;6.10;99.90;;;;;;5102885;28;20040;-73
2023/10/18 02:50:54;;;;;;;16.27;9.00;;;6.00;99.90;;;;;;5085310;28;20031;-75
2023/10/18 02:53:20;;;;;;;14.07;8.88;;;6.00;99.90;;;;;;5102582;28;20035;-73
2023/10/18 02:55:55;;;;;;;15.65;9.68;;;6.00;99.90;;;;;;5100400;28;20039;-73
2023/10/18 02:58:33;;;;;;;17.05;8.93;;;6.00;99.90;;;;;;5086641;28;20044;-74
2023/10/18 03:01:05;;;;;;;16.27;8.57;;;6.00;99.90;;;;;;5101837;28;20100;-74
2023/10/18 03:03:32;;;;;;;13.27;8.77;;;6.00;99.90;;;;;;5101753;28;20089;-73
2023/10/18 03:06:13;;;;;;;13.07;8.38;;;6.00;99.90;;;;;;5102885;28;20040;-73
2023/10/18 03:08:44;;;;;;;14.00;8.88;;;6.00;99.90;;;;;;5103769;28;20118;-73
2023/10/18 03:11:12;;;;;;;16.73;8.85;;;6.00;99.90;;;;;;5105096;28;20056;-73
2023/10/18 03:13:38;;;;;;;14.93;8.95;;;5.90;99.90;;;;;;5105300;28;20063;-73
2023/10/18 03:16:06;;;;;;;13.23;8.55;;;6.00;99.90;;;;;;5102955;28;20073;-75
2023/10/18 03:18:34;;;;;;;15.02;8.88;;;5.90;99.90;;;;;;5102255;28;20040;-75
2023/10/18 03:21:05;;;;;;;16.77;9.85;;;5.90;99.90;;;;;;5101232;28;20035;-75
2023/10/18 03:23:31;;;;;;;14.18;8.52;;;5.90;99.90;;;;;;5083214;28;20044;-73
2023/10/18 03:26:03;;;;;;;15.07;9.07;;;5.90;99.90;;;;;;5099564;28;20047;-73
2023/10/18 03:28:36;;;;;;;15.40;10.15;;;5.90;99.90;;;;;;5117512;28;20048;-73
2023/10/18 03:31:12;;;;;;;16.15;9.70;;;5.90;99.90;;;;;;5098728;28;20414;-73
2023/10/18 03:33:38;;;;;;;17.23;10.05;;;5.80;99.90;;;;;;5117460;28;20043;-73
2023/10/18 03:36:09;;;;;;;15.05;9.88;;;5.80;99.90;;;;;;5099407;28;20042;-73
2023/10/18 03:38:40;;;;;;;18.30;10.48;;;5.90;99.90;;;;;;5115216;28;20117;-72
2023/10/18 03:41:10;;;;;;;16.80;10.02;;;5.80;99.90;;;;;;5099135;28;20039;-73
2023/10/18 03:43:36;;;;;;;15.75;10.23;;;6.00;99.90;;;;;;5099387;28;20043;-73
2023/10/18 03:46:18;;;;;;;17.35;11.90;;;5.90;99.90;;;;;;5100574;28;20043;-73
2023/10/18 03:48:54;;;;;;;19.35;11.27;;;5.80;99.90;;;;;;5118976;28;20043;-75
2023/10/18 03:51:30;;;;;;;18.45;11.02;;;5.90;99.90;;;;;;5100563;28;20398;-75
2023/10/18 03:53:56;;;;;;;23.50;12.20;;;5.80;99.90;;;;;;5082321;28;20406;-75
2023/10/18 03:56:22;;;;;;;17.17;11.10;;;5.80;99.90;;;;;;5100298;28;20039;-75
2023/10/18 03:59:00;;;;;;;17.55;11.25;;;5.80;99.90;;;;;;5099253;28;20039;-75
2023/10/18 04:01:49;;;;;;;19.38;11.70;;;5.90;99.90;;;;;;5098892;28;20035;-75
2023/10/18 04:04:18;;;;;;;24.35;11.95;;;5.80;99.90;;;;;;5117968;28;20093;-75
2023/10/18 04:06:44;;;;;;;24.85;12.23;;;5.90;99.90;;;;;;5099302;28;20063;-75
2023/10/18 04:09:16;;;;;;;21.15;12.60;;;5.90;99.90;;;;;;5099833;28;20061;-75
2023/10/18 04:11:42;;;;;;;22.05;13.68;;;5.90;99.90;;;;;;5100042;28;20056;-75
2023/10/18 04:14:10;;;;;;;24.73;13.35;;;5.80;99.90;;;;;;5083382;28;20035;-75
2023/10/18 04:16:36;;;;;;;19.17;12.65;;;5.80;99.90;;;;;;5100618;28;20050;-75
2023/10/18 04:19:02;;;;;;;22.50;13.32;;;5.80;99.90;;;;;;5100819;28;20046;-75
2023/10/18 04:21:27;;;;;;;19.95;13.02;;;5.80;99.90;;;;;;5099212;28;20118;-75
2023/10/18 04:23:56;;;;;;;22.17;12.43;;;5.80;99.90;;;;;;5099784;28;20505;-75
2023/10/18 04:26:25;;;;;;;17.33;12.75;;;5.80;99.90;;;;;;5100004;28;20132;-75
2023/10/18 04:28:57;;;;;;;24.52;13.65;;;5.80;99.90;;;;;;5100077;28;20079;-75
2023/10/18 04:31:23;;;;;;;21.85;13.07;;;5.80;99.90;;;;;;5117663;28;20082;-75
2023/10/18 04:33:50;;;;;;;20.88;13.90;;;5.80;99.90;;;;;;5100602;28;20039;-75
2023/10/18 04:36:20;;;;;;;20.08;12.85;;;5.80;99.90;;;;;;5117445;28;20096;-75
2023/10/18 04:38:46;;;;;;;24.33;13.18;;;5.70;99.90;;;;;;5099413;28;20522;-75
2023/10/18 04:44:05;;;;;;;22.35;13.85;;;5.70;99.90;;;;;;5097684;28;20490;-75
2023/10/18 04:46:32;;;;;;;20.25;12.55;;;5.70;99.90;;;;;;5102575;28;20089;-75
2023/10/18 04:54:09;;;;;;;22.20;13.65;;;5.70;99.90;;;;;;5098258;28;20051;-72
2023/10/18 04:56:37;;;;;;;22.38;13.50;;;5.70;99.90;;;;;;5098442;28;20040;-73
2023/10/18 05:02:16;;;;;;;25.92;13.95;;;5.70;99.90;;;;;;5097923;28;20092;-73
2023/10/18 05:04:32;;;;;;;22.58;13.77;;;5.70;99.90;;;;;;5115487;28;20043;-73
2023/10/18 05:09:41;;;;;;;25.13;15.18;;;5.70;99.90;;;;;;5097902;28;20078;-73
2023/10/18 05:17:26;;;;;;;24.25;14.00;;;5.60;99.90;;;;;;5098284;28;20043;-73
2023/10/18 05:19:55;;;;;;;24.17;15.00;;;5.60;99.90;;;;;;5099909;28;20051;-73
2023/10/18 05:22:25;;;;;;;28.50;15.13;;;5.60;99.90;;;;;;5085208;28;20550;-73
2023/10/18 05:24:55;;;;;;;24.15;14.77;;;5.60;99.90;;;;;;5102454;28;20032;-73
2023/10/18 05:27:28;;;;;;;24.40;14.50;;;5.60;99.90;;;;;;5102363;28;20188;-73
2023/10/18 05:29:57;;;;;;;29.08;14.90;;;5.60;99.90;;;;;;5102566;28;20039;-73
2023/10/18 05:35:34;;;;;;;27.83;14.88;;;5.60;99.90;;;;;;5101915;28;20048;-73
2023/10/18 05:37:50;;;;;;;24.48;13.98;;;5.60;99.90;;;;;;5114766;28;20426;-73
2023/10/18 05:43:03;;;;;;;27.35;14.77;;;5.70;99.90;;;;;;5098398;28;20122;-75
2023/10/18 05:45:31;;;;;;;26.60;15.27;;;5.60;99.90;;;;;;5098722;28;20123;-73
2023/10/18 05:48:03;;;;;;;29.73;17.73;;;5.70;99.90;;;;;;5081302;28;20043;-73
2023/10/18 05:50:35;;;;;;;27.35;15.13;;;5.70;99.90;;;;;;5083411;28;20039;-73
2023/10/18 05:53:03;;;;;;;30.65;16.98;;;5.60;99.90;;;;;;5103878;28;20067;-73
2023/10/18 05:55:30;;;;;;;24.05;15.88;;;5.60;99.90;;;;;;5103458;28;20043;-73
2023/10/18 05:57:56;;;;;;;27.80;16.20;;;5.60;99.90;;;;;;5101375;28;20075;-73
2023/10/18 06:00:22;;;;;;;25.27;15.07;;;5.60;99.90;;;;;;5101555;28;20043;-73
2023/10/18 06:02:52;;;;;;;31.48;18.75;;;5.60;99.90;;;;;;5117752;28;20547;-73
2023/10/18 06:05:19;;;;;;;24.92;15.80;;;5.60;99.90;;;;;;5101114;28;20112;-73
2023/10/18 06:07:46;;;;;;;26.90;15.68;;;5.60;99.90;;;;;;5101292;28;20043;-74
2023/10/18 06:10:17;;;;;;;30.77;17.80;;;5.60;99.90;;;;;;5101432;28;20558;-73
2023/10/18 06:12:55;;;;;;;27.45;16.17;;;5.60;99.90;;;;;;5083615;28;20066;-73
2023/10/18 06:15:34;;;;;;;27.15;16.77;;;5.60;99.90;;;;;;5098748;28;20047;-75
2023/10/18 06:18:00;;;;;;;23.20;16.27;;;5.60;99.90;;;;;;5114699;28;20036;-74
2023/10/18 06:20:30;;;;;;;26.95;16.40;;;5.60;99.90;;;;;;5096109;28;20445;-74
2023/10/18 06:25:45;;;;;;;31.90;18.15;;;5.60;99.90;;;;;;5096506;28;20039;-74
2023/10/18 06:28:11;;;;;;;27.23;17.13;;;5.60;99.90;;;;;;5096292;28;20039;-75
2023/10/18 06:30:39;;;;;;;29.25;15.85;;;5.60;99.90;;;;;;5095980;28;20050;-74
2023/10/18 06:33:07;;;;;;;30.02;16.33;;;5.70;99.90;;;;;;5096484;28;20039;-74
2023/10/18 06:35:42;;;;;;;27.58;16.08;;;5.70;99.90;;;;;;5096942;28;20500;-74
2023/10/18 06:38:17;;;;;;;27.13;15.10;;;5.70;99.90;;;;;;5079534;28;20046;-74
2023/10/18 06:40:43;;;;;;;25.10;14.45;;;5.80;99.90;;;;;;5096239;28;20039;-74
2023/10/18 06:43:09;;;;;;;22.80;15.18;;;5.70;99.90;;;;;;5114383;28;20039;-74
2023/10/18 06:45:40;;;;;;;24.23;15.77;;;5.70;99.90;;;;;;5096463;28;20418;-75
2023/10/18 06:48:08;;;;;;;26.02;15.57;;;5.70;99.90;;;;;;5090354;28;20406;-75
2023/10/18 06:50:35;;;;;;;26.80;14.68;;;5.70;99.90;;;;;;5088252;28;20440;-75
2023/10/18 06:53:05;;;;;;;25.48;15.45;;;5.80;99.90;;;;;;5078368;28;20051;-74
2023/10/18 06:58:41;;;;;;;25.55;15.52;;;5.90;99.90;;;;;;5075693;28;20108;-76
2023/10/18 07:01:08;;;;;;;23.05;15.50;;;5.90;99.90;;;;;;5075242;28;20039;-76
2023/10/18 07:03:34;;;;;;;30.33;15.55;;;5.90;99.90;;;;;;5076205;28;20040;-76
2023/10/18 07:06:18;;;;;;;26.10;15.50;;;6.00;99.90;;;;;;5075998;28;20144;-76
2023/10/18 07:08:45;;;;;;;23.00;14.38;;;6.00;99.90;;;;;;5075831;28;20040;-76
2023/10/18 07:11:16;;;;;;;29.05;15.30;;;6.10;99.90;;;;;;5093354;28;20101;-74
2023/10/18 07:13:50;;;;;;;28.35;14.65;;;6.10;99.90;;;;;;5093600;28;20089;-73
2023/10/18 07:16:25;;;;;;;24.35;14.80;;;6.10;99.90;;;;;;5075319;28;20602;-76
2023/10/18 07:19:04;;;;;;;28.15;15.40;;;6.20;99.90;;;;;;5074874;28;20511;-76
2023/10/18 07:21:32;;;;;;;26.63;15.23;;;6.20;99.90;;;;;;5075050;28;20499;-76
2023/10/18 07:24:02;;;;;;;23.98;14.00;;;6.20;99.90;;;;;;5093270;28;20078;-76
2023/10/18 07:26:29;;;;;;;27.27;15.15;;;6.20;99.90;;;;;;5074839;28;20051;-76
2023/10/18 07:28:55;;;;;;;27.67;15.02;;;6.30;99.90;;;;;;5074548;28;20105;-76
2023/10/18 07:31:24;;;;;;;24.58;13.57;;;6.30;99.90;;;;;;5074332;28;20415;-76
2023/10/18 07:33:50;;;;;;;28.40;15.73;;;6.40;99.90;;;;;;5074647;28;20040;-76
2023/10/18 07:36:19;;;;;;;27.83;14.13;;;6.50;99.90;;;;;;5092732;28;20403;-76
2023/10/18 07:38:48;;;;;;;23.13;14.93;;;6.60;99.90;;;;;;5079694;28;20044;-76
2023/10/18 07:41:14;;;;;;;27.42;14.98;;;6.60;99.90;;;;;;5091748;28;20449;-76
2023/10/18 07:43:43;;;;;;;25.00;14.68;;;6.60;99.90;;;;;;5078332;28;20043;-77
2023/10/18 07:46:18;;;;;;;24.38;15.40;;;6.70;99.90;;;;;;5112690;28;20032;-76
2023/10/18 07:48:47;;;;;;;26.15;14.90;;;6.70;99.90;;;;;;5094653;28;20046;-75
2023/10/18 07:51:23;;;;;;;22.35;14.57;;;6.80;99.90;;;;;;5094493;28;20410;-75
2023/10/18 07:53:55;;;;;;;24.20;15.35;;;6.80;99.90;;;;;;5094574;28;20499;-75
2023/10/18 07:56:27;;;;;;;22.88;14.02;;;6.80;99.90;;;;;;5112973;28;20118;-75
2023/10/18 07:59:27;;;;;;;22.73;14.60;;;6.90;99.90;;;;;;5112587;28;20044;-76
2023/10/18 08:01:51;;;;;;;20.83;13.30;;;7.00;99.90;;;;;;5094531;28;20628;-75
2023/10/18 08:04:19;;;;;;;24.42;13.77;;;7.00;99.90;;;;;;5112754;28;20046;-74
2023/10/18 08:06:45;;;;;;;27.95;15.60;;;7.10;99.90;;;;;;5112291;28;20085;-72
2023/10/18 08:09:12;;;;;;;80.18;38.58;;;7.20;99.90;;;;;;5112700;28;20107;-73
2023/10/18 08:11:38;;;;;;;27.33;14.40;;;7.30;99.90;;;;;;5112450;28;20042;-75
2023/10/18 08:14:10;;;;;;;80.88;34.90;;;7.30;99.90;;;;;;5092741;28;20494;-74
2023/10/18 08:16:44;;;;;;;58.08;28.10;;;7.50;99.90;;;;;;5103031;28;20058;-74
2023/10/18 08:19:13;;;;;;;36.08;19.70;;;7.50;99.90;;;;;;5099839;28;20392;-74
2023/10/18 08:21:38;;;;;;;39.33;21.25;;;7.60;99.90;;;;;;5073645;28;20079;-74
2023/10/18 08:24:09;;;;;;;51.92;27.38;;;7.70;99.90;;;;;;5092000;28;20076;-74
2023/10/18 08:26:46;;;;;;;29.92;16.33;;;7.70;99.90;;;;;;5092180;28;20047;-74
2023/10/18 08:29:16;;;;;;;21.92;13.20;;;7.70;99.90;;;;;;5056988;28;20039;-74
2023/10/18 08:31:48;;;;;;;24.98;14.30;;;7.70;99.90;;;;;;5073612;28;20039;-74
2023/10/18 08:34:18;;;;;;;20.98;12.23;;;7.70;99.90;;;;;;5097049;28;20040;-74
2023/10/18 08:36:50;;;;;;;19.50;13.23;;;7.80;99.90;;;;;;5073163;28;20119;-75
2023/10/18 08:39:25;;;;;;;26.25;13.10;;;7.90;99.90;;;;;;5073516;28;20104;-74
2023/10/18 08:42:05;;;;;;;19.75;12.68;;;7.90;99.90;;;;;;5091585;28;20048;-74
2023/10/18 08:44:35;;;;;;;23.63;13.32;;;8.00;99.90;;;;;;5092030;28;20043;-74
2023/10/18 08:47:11;;;;;;;18.88;12.98;;;7.90;99.90;;;;;;5073995;28;20040;-74
2023/10/18 08:49:50;;;;;;;20.60;12.20;;;8.00;99.90;;;;;;5091676;28;20043;-72
2023/10/18 08:52:20;;;;;;;20.05;11.75;;;8.00;99.90;;;;;;5091568;28;20122;-72
2023/10/18 08:54:47;;;;;;;22.25;13.07;;;8.00;99.90;;;;;;5103234;28;20050;-72
2023/10/18 08:57:17;;;;;;;24.58;14.00;;;8.00;99.90;;;;;;5105513;28;20043;-72
2023/10/18 08:59:48;;;;;;;18.60;12.02;;;8.10;99.90;;;;;;5105160;28;20036;-72
2023/10/18 09:02:19;;;;;;;21.10;13.70;;;8.20;99.90;;;;;;5109916;28;20040;-72
2023/10/18 09:04:46;;;;;;;16.05;10.88;;;8.10;99.90;;;;;;5098081;28;20039;-76
2023/10/18 09:07:24;;;;;;;18.92;11.57;;;8.20;99.90;;;;;;5097790;28;20832;-72
2023/10/18 09:09:57;;;;;;;20.73;10.55;;;8.30;99.90;;;;;;5115639;28;20039;-72
2023/10/18 09:12:36;;;;;;;15.80;10.45;;;8.40;99.90;;;;;;5115830;28;20050;-72
2023/10/18 09:15:27;;;;;;;15.88;10.80;;;8.50;99.90;;;;;;5097565;28;20040;-71
2023/10/18 09:17:48;;;;;;;14.80;9.80;;;8.50;99.90;;;;;;5114070;28;20047;-72
2023/10/18 09:20:15;;;;;;;19.30;11.38;;;8.60;99.90;;;;;;5082110;28;20124;-72
2023/10/18 09:22:48;;;;;;;16.75;10.90;;;8.60;99.90;;;;;;5095552;28;20044;-72
2023/10/18 09:25:14;;;;;;;20.30;10.30;;;8.70;99.90;;;;;;5095323;28;20036;-71
2023/10/18 09:27:39;;;;;;;14.80;10.30;;;8.70;99.90;;;;;;5095141;28;20097;-72
2023/10/18 09:30:10;;;;;;;16.92;10.45;;;8.80;99.90;;;;;;5094489;28;20058;-72
2023/10/18 09:32:36;;;;;;;17.92;10.05;;;8.90;99.90;;;;;;5107748;28;20036;-72
2023/10/18 09:35:09;;;;;;;16.67;10.13;;;9.00;99.90;;;;;;5092378;28;20048;-71
2023/10/18 09:37:38;;;;;;;18.15;10.10;;;9.00;99.90;;;;;;5088331;28;20036;-72
2023/10/18 09:40:05;;;;;;;17.55;10.73;;;9.10;99.90;;;;;;5084423;28;20521;-72
2023/10/18 09:42:31;;;;;;;16.45;9.80;;;9.20;99.90;;;;;;5102632;28;20036;-72
2023/10/18 09:44:57;;;;;;;16.40;10.65;;;9.20;99.90;;;;;;5111470;28;20440;-73
2023/10/18 09:47:26;;;;;;;15.70;10.15;;;9.20;99.90;;;;;;5096391;28;20498;-72
2023/10/18 09:49:55;;;;;;;15.65;10.88;;;9.20;99.90;;;;;;5096590;28;20048;-73
2023/10/18 09:52:24;;;;;;;15.35;9.93;;;9.20;99.90;;;;;;5096801;28;20566;-72
2023/10/18 09:54:51;;;;;;;21.45;10.20;;;9.20;99.90;;;;;;5096681;28;20042;-74
2023/10/18 09:57:23;;;;;;;15.00;9.75;;;9.30;99.90;;;;;;5096506;28;20534;-74
2023/10/18 09:59:56;;;;;;;17.63;10.77;;;9.20;99.90;;;;;;5096891;28;20039;-74
2023/10/18 10:02:24;;;;;;;13.15;8.85;;;9.20;99.90;;;;;;5096401;28;20040;-74
2023/10/18 10:04:54;;;;;;;15.43;9.75;;;9.30;99.90;;;;;;5096272;28;20042;-74
2023/10/18 10:07:39;;;;;;;16.10;10.32;;;9.30;99.90;;;;;;5096599;28;20525;-74
2023/10/18 10:10:08;;;;;;;17.30;9.80;;;9.40;99.90;;;;;;5096332;28;20035;-74
2023/10/18 10:12:34;;;;;;;15.32;9.68;;;9.40;99.90;;;;;;5096295;28;20070;-73
2023/10/18 10:15:00;;;;;;;14.73;9.25;;;9.60;99.90;;;;;;5114624;28;20491;-74
2023/10/18 10:17:31;;;;;;;13.05;9.02;;;9.60;99.90;;;;;;5096684;28;20413;-73
2023/10/18 10:20:10;;;;;;;18.65;10.48;;;9.70;99.90;;;;;;5095196;28;20134;-74
2023/10/18 10:22:37;;;;;;;14.82;9.38;;;9.80;99.90;;;;;;5081351;28;20418;-73
2023/10/18 10:25:04;;;;;;;18.48;10.05;;;9.80;99.90;;;;;;5075897;28;20047;-74
2023/10/18 10:30:43;;;;;;;14.35;9.32;;;9.90;99.90;;;;;;5075531;28;20073;-74
2023/10/18 10:32:58;;;;;;;13.93;8.82;;;9.90;99.90;;;;;;5062569;28;20044;-74
2023/10/18 10:35:24;;;;;;;14.38;10.35;;;9.90;99.90;;;;;;5074866;28;20071;-74
2023/10/18 10:37:51;;;;;;;14.43;9.35;;;9.90;99.90;;;;;;5074654;28;20147;-74
2023/10/18 10:43:03;;;;;;;14.40;10.10;;;10.00;99.90;;;;;;5075076;28;20052;-74
2023/10/18 10:45:38;;;;;;;15.10;10.15;;;10.00;99.90;;;;;;5093148;28;20085;-74
2023/10/18 10:48:28;;;;;;;14.00;8.95;;;10.10;99.90;;;;;;5074880;28;20036;-75
2023/10/18 10:51:13;;;;;;;14.23;9.30;;;10.10;99.90;;;;;;5074431;28;20086;-74
2023/10/18 10:53:48;;;;;;;13.13;8.95;;;10.20;99.90;;;;;;5075370;28;20043;-74
2023/10/18 10:56:31;;;;;;;17.98;11.02;;;10.30;99.90;;;;;;5091710;28;20044;-74
2023/10/18 10:59:21;;;;;;;;;;;10.30;99.90;;;;;;5103967;28;20062;-74
2023/10/18 11:04:27;;;;;;;14.52;8.88;;;10.30;99.90;;;;;;5095777;28;20043;-74
2023/10/18 11:06:57;;;;;;;14.63;8.75;;;10.40;99.90;;;;;;5095487;28;20043;-73
2023/10/18 11:09:33;;;;;;;14.75;9.75;;;10.40;99.90;;;;;;5113579;28;20031;-73
2023/10/18 11:12:10;;;;;;;15.32;9.13;;;10.40;99.90;;;;;;5113307;28;20391;-72
2023/10/18 11:14:37;;;;;;;18.38;9.15;;;10.50;99.90;;;;;;5113583;28;20093;-73
2023/10/18 11:17:42;;;;;;;12.02;9.15;;;10.50;99.90;;;;;;5112346;28;20072;-72
2023/10/18 11:19:58;;;;;;;13.93;9.27;;;10.50;99.90;;;;;;5089868;28;20043;-73
2023/10/18 11:22:24;;;;;;;13.35;8.75;;;10.50;99.90;;;;;;5103450;28;20028;-73
2023/10/18 11:24:51;;;;;;;14.00;9.05;;;10.60;99.90;;;;;;5092863;28;20572;-73
2023/10/18 11:27:21;;;;;;;14.02;9.32;;;10.60;99.90;;;;;;5113337;28;20040;-75
2023/10/18 11:29:47;;;;;;;15.57;10.07;;;10.70;99.90;;;;;;5094591;28;20051;-73
2023/10/18 11:32:18;;;;;;;14.05;9.20;;;10.70;99.90;;;;;;5094760;28;20040;-74
2023/10/18 11:34:46;;;;;;;16.45;9.57;;;10.70;99.90;;;;;;5113115;28;20043;-74
2023/10/18 11:39:57;;;;;;;12.35;9.27;;;10.80;99.90;;;;;;5112750;28;20082;-75
2023/10/18 11:42:23;;;;;;;11.90;9.02;;;10.90;99.90;;;;;;5094481;28;20039;-73
2023/10/18 11:44:53;;;;;;;15.20;9.48;;;10.80;99.90;;;;;;5094666;28;20414;-73
2023/10/18 11:47:21;;;;;;;13.13;8.40;;;10.90;99.90;;;;;;5094755;28;20043;-73
2023/10/18 11:49:57;;;;;;;15.82;7.80;;;10.90;99.90;;;;;;5094550;28;20527;-73
2023/10/18 11:52:25;;;;;;;11.68;7.35;;;10.90;99.90;;;;;;5094289;28;20046;-73
2023/10/18 11:54:52;;;;;;;11.25;7.45;;;11.00;99.90;;;;;;5094417;28;20039;-73
2023/10/18 11:57:26;;;;;;;12.15;8.30;;;11.00;99.90;;;;;;5094463;28;20039;-73
2023/10/18 11:59:56;;;;;;;10.98;8.05;;;11.10;99.90;;;;;;5094181;28;20526;-73
2023/10/18 12:02:28;;;;;;;11.60;7.20;;;11.10;99.90;;;;;;5094148;28;20059;-73
2023/10/18 12:04:57;;;;;;;13.25;8.20;;;11.10;99.90;;;;;;5094316;28;20036;-73
2023/10/18 12:07:24;;;;;;;13.43;7.65;;;11.10;99.90;;;;;;5094197;28;20073;-73
2023/10/18 12:09:54;;;;;;;12.55;7.45;;;11.20;99.90;;;;;;5094176;28;20146;-73
2023/10/18 12:12:20;;;;;;;11.70;8.32;;;11.20;99.90;;;;;;5093932;28;20040;-73
2023/10/18 12:14:47;;;;;;;12.45;7.25;;;11.20;99.90;;;;;;5094081;28;20036;-73
2023/10/18 12:17:13;;;;;;;14.98;8.05;;;11.20;99.90;;;;;;5112578;28;20043;-73
2023/10/18 12:19:39;;;;;;;12.75;7.95;;;11.30;99.90;;;;;;5112238;28;20371;-73
2023/10/18 12:22:07;;;;;;;11.40;7.72;;;11.30;99.90;;;;;;5112119;28;20028;-72
2023/10/18 12:24:33;;;;;;;11.90;7.28;;;11.40;99.90;;;;;;5094063;28;20031;-73
2023/10/18 12:29:52;;;;;;;12.13;8.07;;;11.40;99.90;;;;;;5111680;28;20040;-73
2023/10/18 12:32:25;;;;;;;12.48;8.07;;;11.30;99.90;;;;;;5093731;28;20039;-73
2023/10/18 12:34:57;;;;;;;17.63;9.13;;;11.40;99.90;;;;;;5094077;28;20499;-73
2023/10/18 12:37:32;;;;;;;11.98;7.80;;;11.40;99.90;;;;;;5093689;28;20039;-73
2023/10/18 12:40:04;;;;;;;12.65;8.02;;;11.40;99.90;;;;;;5094337;28;20126;-73
2023/10/18 12:42:32;;;;;;;14.73;7.30;;;11.40;99.90;;;;;;5093775;28;20081;-73
2023/10/18 12:45:07;;;;;;;11.48;7.18;;;11.40;99.90;;;;;;5093950;28;20118;-73
2023/10/18 12:47:34;;;;;;;11.07;7.25;;;11.40;99.90;;;;;;5106095;28;20035;-73
2023/10/18 12:50:03;;;;;;;11.10;7.78;;;11.40;99.90;;;;;;5100096;28;20522;-73
2023/10/18 12:55:46;;;;;;;9.80;6.93;;;11.50;99.90;;;;;;5094351;28;20044;-73
2023/10/18 12:57:51;;;;;;;10.48;7.50;;;11.50;99.90;;;;;;5067701;28;20067;-73
2023/10/18 13:00:17;;;;;;;10.15;7.05;;;11.50;99.90;;;;;;5090878;28;20032;-73
2023/10/18 13:05:22;;;;;;;13.57;6.78;;;11.50;99.90;;;;;;5103292;28;20047;-73
2023/10/18 13:07:52;;;;;;;13.40;7.45;;;11.50;99.90;;;;;;5108510;28;20047;-73
2023/10/18 13:10:35;;;;;;;11.50;7.32;;;11.50;99.90;;;;;;5099981;28;20503;-73
2023/10/18 13:13:07;;;;;;;14.77;7.10;;;11.50;99.90;;;;;;5084047;28;20043;-73
2023/10/18 13:15:33;;;;;;;12.27;7.88;;;11.50;99.90;;;;;;5083548;28;20449;-73
2023/10/18 13:17:59;;;;;;;11.02;7.47;;;11.50;99.90;;;;;;5099582;28;20123;-73
2023/10/18 13:20:25;;;;;;;10.85;7.13;;;11.50;99.90;;;;;;5099532;28;20085;-73
2023/10/18 13:22:57;;;;;;;13.55;6.80;;;11.50;99.90;;;;;;5098860;28;20453;-74
2023/10/18 13:25:26;;;;;;;11.10;6.53;;;11.50;99.90;;;;;;5099009;28;20044;-73
2023/10/18 13:27:53;;;;;;;15.13;8.07;;;11.50;99.90;;;;;;5073163;28;20040;-73
2023/10/18 13:33:11;;;;;;;12.98;7.10;;;11.60;99.90;;;;;;5091278;28;20039;-73
2023/10/18 13:35:39;;;;;;;10.32;7.18;;;11.60;99.90;;;;;;5073154;28;20036;-73
2023/10/18 13:38:04;;;;;;;14.75;7.50;;;11.50;99.90;;;;;;5073056;28;20089;-73
2023/10/18 13:40:36;;;;;;;12.05;6.65;;;11.60;99.90;;;;;;5074062;28;20036;-73
2023/10/18 13:43:07;;;;;;;13.85;8.43;;;11.60;99.90;;;;;;5084642;28;20035;-73
2023/10/18 13:45:37;;;;;;;11.60;6.13;;;11.60;99.90;;;;;;5070326;28;20084;-73
2023/10/18 13:48:03;;;;;;;12.30;7.63;;;11.70;99.90;;;;;;5096868;28;20043;-73